Pagrindinis puslapis
METAR-TAF:

METAR-TAF

Oro uostai :

Akron, Koloradas, Jungtinės Amerikos Valstijos

platuma: 40-10-28N, ilguma: 103-12-52W, Aukštis: 1431 m

Dabartinis oras

Ataskaita buvo paskelbta 1 valandą ir 11 minutes, ne 01:53 UTC
Vėjas 12 kt iš Pietvakarių
Temperatūra 6°C
Drėgmė 39%
Slėgis 1014 hPa
Matomumas: 16.1 km
Giedras dangus

METAR: KAKO 130153Z AUTO 22012KT 10SM CLR 06/M07 A2994 RMK AO2 SLP160 T00561072 $

Laikas: 20:04 (03:04 UTC)


TAF: trūkstamas

Orai ataskaitas ir orų prognozės (METAR, TAF).

turimą stotys yra geltonos ir raudonos taškus žemėlapyje.

Perkelti pele per norėdami pamatyti stoties vardą.

Tada spustelėkite, norėdami matyti oro stebėjimo ir prognozės.

Norėdami pakeisti žemėlapį: spustelėkite ant žalios mygtukų su juodo kryžiaus žemyn,; žalią mygtuką su brūkšneliu, jei norite nutolinti; arba žalių rodyklių gretimoms žemėlapius.


METAR-TAF: